Hovedside
METAR-TAF:

METAR-TAF

Lufthavner :

Prinsesse Juliana internasjonale lufthavn

Sint Maarten, De nederlandske Antillene

breddegrad: 18-03N, lengdegrad: 063-07W, høyde over havet: 4 m

Gjeldene værobservasjon

Denne rapporten ble laget for 40 minutter siden, klokken 15:00 UTC
Vind 14 kt fra Øst, skiftende mellom Nordøst og Øst-sørøst
Temperatur 29°C
Luftfuktighet 58%
Trykk 1020 hPa
Sikt 10 km eller mer
Spredte skyer i en høyde av 1800 ft

METAR: TNCM 201500Z 09014KT 040V120 9999 SCT018 29/20 Q1020 A3013 NOSIG

Tid: 11:40 (15:40 UTC)

Varsel

Denne rapporten ble laget for 4 timer og 1 minutter siden, klokken 11:39 UTC
Varsel gyldig fra 20. klokken 12 UTC til 21. klokken 12 UTC
Vind 14 kt fra Øst
Sikt: 10 km
Få skyer i en høyde av 2100 ft

TAF: TNCM 201139Z 2012/2112 09014KT P6SM FEW021

Værobservasjoner og værvarsel for over 4000 flyplasser (METAR- og TAF-rapporter).

Tilgjengelige stasjoner er representert av de røde og gule prikkene på kartet.

Hold musepekeren over prikken for å se navnet på stasjonen.

Klikk så for å se værobservasjoner og -varsler.

For å forandre kartet kan du klikke på den grønne knappen med svart kryss for å zoome inn, på den grønne knappen med strek for å zoome ut, eller på de grønne pilene for å se tilstøtende kart.


METAR-TAF: